sensor_id;sensor_type;location;lat;lon;timestamp;pressure;altitude;pressure_sealevel;temperature;humidity
59873;BME280;50750;51.636;4.948;2023-05-12T00:00:54;101814.79;;;18.30;64.62
59873;BME280;50750;51.636;4.948;2023-05-12T00:03:21;101812.84;;;18.30;64.63
59873;BME280;50750;51.636;4.948;2023-05-12T00:05:49;101815.13;;;18.30;64.68
59873;BME280;50750;51.636;4.948;2023-05-12T00:08:15;101815.67;;;18.30;64.69
59873;BME280;50750;51.636;4.948;2023-05-12T00:10:42;101812.50;;;18.29;64.53
59873;BME280;50750;51.636;4.948;2023-05-12T00:13:09;101812.13;;;18.30;64.72
59873;BME280;50750;51.636;4.948;2023-05-12T00:15:36;101808.94;;;18.30;64.50
59873;BME280;50750;51.636;4.948;2023-05-12T00:18:05;101808.07;;;18.30;64.55
59873;BME280;50750;51.636;4.948;2023-05-12T00:20:32;101804.71;;;18.29;64.53
59873;BME280;50750;51.636;4.948;2023-05-12T00:22:58;101804.73;;;18.29;64.53
59873;BME280;50750;51.636;4.948;2023-05-12T00:25:25;101802.83;;;18.28;64.67
59873;BME280;50750;51.636;4.948;2023-05-12T00:27:51;101802.52;;;18.27;64.58
59873;BME280;50750;51.636;4.948;2023-05-12T00:30:18;101800.05;;;18.27;64.53
59873;BME280;50750;51.636;4.948;2023-05-12T00:36:21;101799.52;;;18.27;64.67
59873;BME280;50750;51.636;4.948;2023-05-12T00:38:47;101799.36;;;18.27;64.65
59873;BME280;50750;51.636;4.948;2023-05-12T00:41:14;101797.21;;;18.27;64.56
59873;BME280;50750;51.636;4.948;2023-05-12T00:43:41;101795.08;;;18.27;64.48
59873;BME280;50750;51.636;4.948;2023-05-12T00:46:07;101793.67;;;18.27;64.70
59873;BME280;50750;51.636;4.948;2023-05-12T00:48:35;101794.39;;;18.27;64.50
59873;BME280;50750;51.636;4.948;2023-05-12T00:51:02;101794.57;;;18.26;64.57
59873;BME280;50750;51.636;4.948;2023-05-12T00:53:30;101797.25;;;18.26;64.53
59873;BME280;50750;51.636;4.948;2023-05-12T00:55:57;101794.79;;;18.26;64.52
59873;BME280;50750;51.636;4.948;2023-05-12T00:58:23;101790.75;;;18.25;64.52
59873;BME280;50750;51.636;4.948;2023-05-12T01:00:50;101793.63;;;18.24;64.54
59873;BME280;50750;51.636;4.948;2023-05-12T01:03:17;101788.85;;;18.24;64.60
59873;BME280;50750;51.636;4.948;2023-05-12T01:05:48;101785.15;;;18.23;64.49
59873;BME280;50750;51.636;4.948;2023-05-12T01:08:16;101788.12;;;18.24;64.43
59873;BME280;50750;51.636;4.948;2023-05-12T01:10:45;101785.13;;;18.24;64.55
59873;BME280;50750;51.636;4.948;2023-05-12T01:13:12;101781.55;;;18.25;64.46
59873;BME280;50750;51.636;4.948;2023-05-12T01:15:41;101777.13;;;18.24;64.47
59873;BME280;50750;51.636;4.948;2023-05-12T01:18:10;101774.11;;;18.24;64.50
59873;BME280;50750;51.636;4.948;2023-05-12T01:20:41;101773.23;;;18.24;64.34
59873;BME280;50750;51.636;4.948;2023-05-12T01:23:08;101774.11;;;18.24;64.48
59873;BME280;50750;51.636;4.948;2023-05-12T01:25:36;101771.11;;;18.24;64.48
59873;BME280;50750;51.636;4.948;2023-05-12T01:28:04;101770.25;;;18.24;64.48
59873;BME280;50750;51.636;4.948;2023-05-12T01:30:32;101767.81;;;18.23;64.50
59873;BME280;50750;51.636;4.948;2023-05-12T01:33:00;101774.58;;;18.22;64.54
59873;BME280;50750;51.636;4.948;2023-05-12T01:35:26;101771.11;;;18.21;64.42
59873;BME280;50750;51.636;4.948;2023-05-12T01:37:53;101775.74;;;18.20;64.53
59873;BME280;50750;51.636;4.948;2023-05-12T01:40:20;101768.35;;;18.19;64.30
59873;BME280;50750;51.636;4.948;2023-05-12T01:42:47;101770.07;;;18.20;64.40
59873;BME280;50750;51.636;4.948;2023-05-12T01:45:14;101768.98;;;18.20;64.42
59873;BME280;50750;51.636;4.948;2023-05-12T01:47:40;101766.86;;;18.20;64.34
59873;BME280;50750;51.636;4.948;2023-05-12T01:50:08;101765.25;;;18.21;64.39
59873;BME280;50750;51.636;4.948;2023-05-12T01:52:34;101764.17;;;18.21;64.38
59873;BME280;50750;51.636;4.948;2023-05-12T01:55:01;101764.17;;;18.21;64.41
59873;BME280;50750;51.636;4.948;2023-05-12T01:57:28;101764.71;;;18.20;64.54
59873;BME280;50750;51.636;4.948;2023-05-12T01:59:54;101767.05;;;18.20;64.35
59873;BME280;50750;51.636;4.948;2023-05-12T02:02:21;101765.81;;;18.20;64.48
59873;BME280;50750;51.636;4.948;2023-05-12T02:04:47;101759.30;;;18.19;64.41
59873;BME280;50750;51.636;4.948;2023-05-12T02:07:14;101762.66;;;18.19;64.49
59873;BME280;50750;51.636;4.948;2023-05-12T02:09:41;101760.40;;;18.18;64.51
59873;BME280;50750;51.636;4.948;2023-05-12T02:12:08;101759.86;;;18.18;64.52
59873;BME280;50750;51.636;4.948;2023-05-12T02:14:34;101761.79;;;18.19;64.61
59873;BME280;50750;51.636;4.948;2023-05-12T02:17:01;101760.01;;;18.19;64.56
59873;BME280;50750;51.636;4.948;2023-05-12T02:19:27;101755.40;;;18.19;64.50
59873;BME280;50750;51.636;4.948;2023-05-12T02:21:54;101752.73;;;18.19;64.31
59873;BME280;50750;51.636;4.948;2023-05-12T02:24:21;101748.66;;;18.19;64.40
59873;BME280;50750;51.636;4.948;2023-05-12T02:26:47;101750.76;;;18.20;64.44
59873;BME280;50750;51.636;4.948;2023-05-12T02:29:14;101748.99;;;18.20;64.53
59873;BME280;50750;51.636;4.948;2023-05-12T02:31:40;101745.82;;;18.19;64.37
59873;BME280;50750;51.636;4.948;2023-05-12T02:34:07;101741.23;;;18.19;64.46
59873;BME280;50750;51.636;4.948;2023-05-12T02:36:34;101741.25;;;18.18;64.41
59873;BME280;50750;51.636;4.948;2023-05-12T02:39:00;101740.59;;;18.17;64.52
59873;BME280;50750;51.636;4.948;2023-05-12T02:41:26;101733.89;;;18.17;64.40
59873;BME280;50750;51.636;4.948;2023-05-12T02:43:54;101734.40;;;18.17;64.48
59873;BME280;50750;51.636;4.948;2023-05-12T02:46:20;101729.95;;;18.18;64.37
59873;BME280;50750;51.636;4.948;2023-05-12T02:48:47;101726.94;;;18.18;64.45
59873;BME280;50750;51.636;4.948;2023-05-12T02:51:13;101725.34;;;18.18;64.35
59873;BME280;50750;51.636;4.948;2023-05-12T02:53:40;101727.41;;;18.19;64.58
59873;BME280;50750;51.636;4.948;2023-05-12T02:56:06;101722.09;;;18.18;64.42
59873;BME280;50750;51.636;4.948;2023-05-12T02:58:33;101719.29;;;18.18;64.37
59873;BME280;50750;51.636;4.948;2023-05-12T03:01:00;101716.27;;;18.18;64.42
59873;BME280;50750;51.636;4.948;2023-05-12T03:03:26;101715.25;;;18.17;64.44
59873;BME280;50750;51.636;4.948;2023-05-12T03:05:53;101712.06;;;18.17;64.29
59873;BME280;50750;51.636;4.948;2023-05-12T03:08:19;101713.20;;;18.16;64.46
59873;BME280;50750;51.636;4.948;2023-05-12T03:10:45;101706.84;;;18.15;64.44
59873;BME280;50750;51.636;4.948;2023-05-12T03:13:12;101707.91;;;18.15;64.52
59873;BME280;50750;51.636;4.948;2023-05-12T03:15:38;101707.58;;;18.15;64.67
59873;BME280;50750;51.636;4.948;2023-05-12T03:18:06;101708.46;;;18.15;64.49
59873;BME280;50750;51.636;4.948;2023-05-12T03:20:32;101709.31;;;18.15;64.38
59873;BME280;50750;51.636;4.948;2023-05-12T03:22:59;101707.18;;;18.16;64.45
59873;BME280;50750;51.636;4.948;2023-05-12T03:25:25;101704.87;;;18.16;64.44
59873;BME280;50750;51.636;4.948;2023-05-12T03:27:52;101699.92;;;18.15;64.40
59873;BME280;50750;51.636;4.948;2023-05-12T03:30:18;101699.74;;;18.15;64.36
59873;BME280;50750;51.636;4.948;2023-05-12T03:32:45;101695.14;;;18.15;64.52
59873;BME280;50750;51.636;4.948;2023-05-12T03:35:12;101694.80;;;18.15;64.40
59873;BME280;50750;51.636;4.948;2023-05-12T03:37:39;101689.88;;;18.14;64.34
59873;BME280;50750;51.636;4.948;2023-05-12T03:40:06;101688.48;;;18.14;64.41
59873;BME280;50750;51.636;4.948;2023-05-12T03:42:33;101687.64;;;18.13;64.49
59873;BME280;50750;51.636;4.948;2023-05-12T03:44:59;101685.37;;;18.12;64.55
59873;BME280;50750;51.636;4.948;2023-05-12T03:47:25;101682.56;;;18.11;64.40
59873;BME280;50750;51.636;4.948;2023-05-12T03:49:52;101680.80;;;18.12;64.46
59873;BME280;50750;51.636;4.948;2023-05-12T03:52:18;101681.32;;;18.12;64.54
59873;BME280;50750;51.636;4.948;2023-05-12T03:54:45;101680.45;;;18.12;64.49
59873;BME280;50750;51.636;4.948;2023-05-12T03:57:11;101680.80;;;18.11;64.50
59873;BME280;50750;51.636;4.948;2023-05-12T03:59:38;101682.56;;;18.12;64.47
59873;BME280;50750;51.636;4.948;2023-05-12T04:02:04;101681.14;;;18.12;64.50
59873;BME280;50750;51.636;4.948;2023-05-12T04:04:32;101681.84;;;18.12;64.32
59873;BME280;50750;51.636;4.948;2023-05-12T04:06:59;101681.33;;;18.11;64.50
59873;BME280;50750;51.636;4.948;2023-05-12T04:09:26;101684.16;;;18.12;64.42
59873;BME280;50750;51.636;4.948;2023-05-12T04:11:52;101681.52;;;18.11;64.44
59873;BME280;50750;51.636;4.948;2023-05-12T04:14:19;101682.06;;;18.10;64.49
59873;BME280;50750;51.636;4.948;2023-05-12T04:16:45;101679.98;;;18.09;64.46
59873;BME280;50750;51.636;4.948;2023-05-12T04:22:49;101678.09;;;18.09;64.50
59873;BME280;50750;51.636;4.948;2023-05-12T04:25:16;101681.63;;;18.09;64.54
59873;BME280;50750;51.636;4.948;2023-05-12T04:27:43;101679.48;;;18.09;64.48
59873;BME280;50750;51.636;4.948;2023-05-12T04:30:09;101683.88;;;18.10;64.59
59873;BME280;50750;51.636;4.948;2023-05-12T04:32:36;101681.75;;;18.10;64.33
59873;BME280;50750;51.636;4.948;2023-05-12T04:35:03;101680.84;;;18.10;64.39
59873;BME280;50750;51.636;4.948;2023-05-12T04:37:30;101684.58;;;18.10;64.42
59873;BME280;50750;51.636;4.948;2023-05-12T04:39:57;101682.25;;;18.10;64.42
59873;BME280;50750;51.636;4.948;2023-05-12T04:42:23;101681.72;;;18.10;64.42
59873;BME280;50750;51.636;4.948;2023-05-12T04:44:50;101681.93;;;18.09;64.26
59873;BME280;50750;51.636;4.948;2023-05-12T04:47:16;101678.97;;;18.09;64.39
59873;BME280;50750;51.636;4.948;2023-05-12T04:49:43;101679.69;;;18.08;64.31
59873;BME280;50750;51.636;4.948;2023-05-12T04:52:09;101683.46;;;18.07;64.43
59873;BME280;50750;51.636;4.948;2023-05-12T04:54:36;101687.55;;;18.07;64.48
59873;BME280;50750;51.636;4.948;2023-05-12T04:57:04;101688.95;;;18.07;64.55
59873;BME280;50750;51.636;4.948;2023-05-12T04:59:31;101689.30;;;18.07;64.42
59873;BME280;50750;51.636;4.948;2023-05-12T05:01:57;101692.66;;;18.08;64.53
59873;BME280;50750;51.636;4.948;2023-05-12T05:04:24;101695.66;;;18.08;64.39
59873;BME280;50750;51.636;4.948;2023-05-12T05:06:51;101695.30;;;18.08;64.44
59873;BME280;50750;51.636;4.948;2023-05-12T05:09:17;101699.37;;;18.08;64.45
59873;BME280;50750;51.636;4.948;2023-05-12T05:11:44;101698.83;;;18.08;64.40
59873;BME280;50750;51.636;4.948;2023-05-12T05:14:10;101701.86;;;18.08;64.34
59873;BME280;50750;51.636;4.948;2023-05-12T05:16:37;101698.34;;;18.08;64.28
59873;BME280;50750;51.636;4.948;2023-05-12T05:19:03;101703.88;;;18.07;64.41
59873;BME280;50750;51.636;4.948;2023-05-12T05:21:30;101704.06;;;18.06;64.35
59873;BME280;50750;51.636;4.948;2023-05-12T05:23:57;101709.39;;;18.06;64.42
59873;BME280;50750;51.636;4.948;2023-05-12T05:26:24;101709.95;;;18.06;64.47
59873;BME280;50750;51.636;4.948;2023-05-12T05:28:50;101714.37;;;18.06;64.38
59873;BME280;50750;51.636;4.948;2023-05-12T05:31:20;101711.67;;;18.07;64.45
59873;BME280;50750;51.636;4.948;2023-05-12T05:33:47;101711.35;;;18.06;64.26
59873;BME280;50750;51.636;4.948;2023-05-12T05:36:13;101712.33;;;18.08;64.30
59873;BME280;50750;51.636;4.948;2023-05-12T05:38:40;101709.48;;;18.08;64.38
59873;BME280;50750;51.636;4.948;2023-05-12T05:41:06;101709.31;;;18.08;64.41
59873;BME280;50750;51.636;4.948;2023-05-12T05:43:33;101717.48;;;18.07;64.24
59873;BME280;50750;51.636;4.948;2023-05-12T05:46:00;101719.61;;;18.07;64.34
59873;BME280;50750;51.636;4.948;2023-05-12T05:48:27;101717.86;;;18.07;64.32
59873;BME280;50750;51.636;4.948;2023-05-12T05:50:53;101719.48;;;18.06;64.29
59873;BME280;50750;51.636;4.948;2023-05-12T05:53:20;101720.42;;;18.05;64.43
59873;BME280;50750;51.636;4.948;2023-05-12T05:55:47;101722.57;;;18.05;64.47
59873;BME280;50750;51.636;4.948;2023-05-12T05:58:14;101723.13;;;18.05;64.27
59873;BME280;50750;51.636;4.948;2023-05-12T06:00:42;101725.09;;;18.04;64.40
59873;BME280;50750;51.636;4.948;2023-05-12T06:03:09;101727.26;;;18.03;64.44
59873;BME280;50750;51.636;4.948;2023-05-12T06:05:35;101725.98;;;18.04;64.43
59873;BME280;50750;51.636;4.948;2023-05-12T06:08:02;101734.29;;;18.05;64.42
59873;BME280;50750;51.636;4.948;2023-05-12T06:10:30;101730.77;;;18.04;64.34
59873;BME280;50750;51.636;4.948;2023-05-12T06:12:57;101735.71;;;18.04;64.50
59873;BME280;50750;51.636;4.948;2023-05-12T06:15:23;101733.23;;;18.04;64.33
59873;BME280;50750;51.636;4.948;2023-05-12T06:17:50;101733.77;;;18.04;64.46
59873;BME280;50750;51.636;4.948;2023-05-12T06:20:16;101737.84;;;18.04;64.46
59873;BME280;50750;51.636;4.948;2023-05-12T06:22:43;101741.60;;;18.04;64.34
59873;BME280;50750;51.636;4.948;2023-05-12T06:25:09;101746.40;;;18.04;64.48
59873;BME280;50750;51.636;4.948;2023-05-12T06:27:36;101748.73;;;18.03;64.32
59873;BME280;50750;51.636;4.948;2023-05-12T06:30:03;101748.05;;;18.02;64.48
59873;BME280;50750;51.636;4.948;2023-05-12T06:32:30;101752.17;;;18.01;64.53
59873;BME280;50750;51.636;4.948;2023-05-12T06:34:56;101750.55;;;18.01;64.50
59873;BME280;50750;51.636;4.948;2023-05-12T06:37:23;101752.33;;;18.02;64.46
59873;BME280;50750;51.636;4.948;2023-05-12T06:39:49;101748.76;;;18.02;64.37
59873;BME280;50750;51.636;4.948;2023-05-12T06:42:16;101758.14;;;18.03;64.40
59873;BME280;50750;51.636;4.948;2023-05-12T06:44:42;101753.52;;;18.03;64.37
59873;BME280;50750;51.636;4.948;2023-05-12T06:47:09;101752.64;;;18.03;64.43
59873;BME280;50750;51.636;4.948;2023-05-12T06:49:35;101754.23;;;18.03;64.41
59873;BME280;50750;51.636;4.948;2023-05-12T06:52:05;101758.85;;;18.02;64.38
59873;BME280;50750;51.636;4.948;2023-05-12T06:54:32;101755.86;;;18.02;64.44
59873;BME280;50750;51.636;4.948;2023-05-12T06:56:58;101760.30;;;18.02;64.50
59873;BME280;50750;51.636;4.948;2023-05-12T06:59:25;101762.79;;;18.01;64.54
59873;BME280;50750;51.636;4.948;2023-05-12T07:01:51;101763.90;;;18.01;64.51
59873;BME280;50750;51.636;4.948;2023-05-12T07:04:18;101766.58;;;18.00;64.61
59873;BME280;50750;51.636;4.948;2023-05-12T07:06:44;101767.81;;;18.00;64.43
59873;BME280;50750;51.636;4.948;2023-05-12T07:09:11;101770.84;;;18.00;64.53
59873;BME280;50750;51.636;4.948;2023-05-12T07:11:38;101773.48;;;18.00;64.58
59873;BME280;50750;51.636;4.948;2023-05-12T07:14:04;101774.73;;;18.00;64.46
59873;BME280;50750;51.636;4.948;2023-05-12T07:16:31;101773.64;;;18.01;64.63
59873;BME280;50750;51.636;4.948;2023-05-12T07:18:57;101778.08;;;18.01;64.60
59873;BME280;50750;51.636;4.948;2023-05-12T07:21:24;101778.41;;;18.01;64.62
59873;BME280;50750;51.636;4.948;2023-05-12T07:23:51;101777.56;;;18.00;64.77
59873;BME280;50750;51.636;4.948;2023-05-12T07:26:17;101780.23;;;18.00;64.73
59873;BME280;50750;51.636;4.948;2023-05-12T07:28:44;101780.07;;;18.00;64.52
59873;BME280;50750;51.636;4.948;2023-05-12T07:31:10;101779.38;;;17.99;64.41
59873;BME280;50750;51.636;4.948;2023-05-12T07:33:37;101779.23;;;17.99;64.47
59873;BME280;50750;51.636;4.948;2023-05-12T07:36:03;101778.34;;;17.99;64.71
59873;BME280;50750;51.636;4.948;2023-05-12T07:38:30;101778.55;;;17.98;64.62
59873;BME280;50750;51.636;4.948;2023-05-12T07:40:58;101782.44;;;17.98;64.75
59873;BME280;50750;51.636;4.948;2023-05-12T07:43:25;101784.86;;;17.99;64.71
59873;BME280;50750;51.636;4.948;2023-05-12T07:45:54;101783.97;;;18.00;64.54
59873;BME280;50750;51.636;4.948;2023-05-12T07:48:21;101788.19;;;18.00;64.62
59873;BME280;50750;51.636;4.948;2023-05-12T07:50:48;101787.48;;;18.00;64.61
59873;BME280;50750;51.636;4.948;2023-05-12T07:53:14;101787.48;;;18.00;64.69
59873;BME280;50750;51.636;4.948;2023-05-12T07:55:41;101783.06;;;18.00;64.80
59873;BME280;50750;51.636;4.948;2023-05-12T07:58:09;101786.27;;;17.99;64.69
59873;BME280;50750;51.636;4.948;2023-05-12T08:00:35;101782.90;;;18.00;64.65
59873;BME280;50750;51.636;4.948;2023-05-12T08:03:03;101785.75;;;17.99;64.68
59873;BME280;50750;51.636;4.948;2023-05-12T08:05:30;101791.08;;;17.99;64.71
59873;BME280;50750;51.636;4.948;2023-05-12T08:07:56;101794.43;;;17.99;64.62
59873;BME280;50750;51.636;4.948;2023-05-12T08:10:23;101791.09;;;17.99;64.72
59873;BME280;50750;51.636;4.948;2023-05-12T08:12:52;101794.95;;;18.00;64.85
59873;BME280;50750;51.636;4.948;2023-05-12T08:15:18;101795.47;;;18.00;64.75
59873;BME280;50750;51.636;4.948;2023-05-12T08:17:45;101802.02;;;18.00;64.69
59873;BME280;50750;51.636;4.948;2023-05-12T08:20:12;101798.30;;;18.00;64.80
59873;BME280;50750;51.636;4.948;2023-05-12T08:22:39;101802.00;;;18.01;64.84
59873;BME280;50750;51.636;4.948;2023-05-12T08:25:06;101807.67;;;18.01;64.83
59873;BME280;50750;51.636;4.948;2023-05-12T08:27:33;101808.19;;;18.01;64.81
59873;BME280;50750;51.636;4.948;2023-05-12T08:30:00;101803.42;;;18.01;64.77
59873;BME280;50750;51.636;4.948;2023-05-12T08:32:26;101802.30;;;18.02;64.65
59873;BME280;50750;51.636;4.948;2023-05-12T08:34:53;101806.23;;;18.01;64.76
59873;BME280;50750;51.636;4.948;2023-05-12T08:37:19;101808.19;;;18.01;64.69
59873;BME280;50750;51.636;4.948;2023-05-12T08:39:46;101811.56;;;18.01;64.80
59873;BME280;50750;51.636;4.948;2023-05-12T08:42:29;101815.61;;;18.01;64.65
59873;BME280;50750;51.636;4.948;2023-05-12T08:44:58;101817.00;;;18.02;64.76
59873;BME280;50750;51.636;4.948;2023-05-12T08:47:26;101818.21;;;18.03;64.73
59873;BME280;50750;51.636;4.948;2023-05-12T08:49:58;101818.89;;;18.03;64.83
59873;BME280;50750;51.636;4.948;2023-05-12T08:52:32;101824.00;;;18.04;64.79
59873;BME280;50750;51.636;4.948;2023-05-12T08:54:59;101823.27;;;18.04;64.70
59873;BME280;50750;51.636;4.948;2023-05-12T08:57:28;101827.34;;;18.04;64.79
59873;BME280;50750;51.636;4.948;2023-05-12T08:59:56;101832.83;;;18.04;64.71
59873;BME280;50750;51.636;4.948;2023-05-12T09:02:26;101831.05;;;18.05;64.63
59873;BME280;50750;51.636;4.948;2023-05-12T09:04:53;101828.39;;;18.05;64.68
59873;BME280;50750;51.636;4.948;2023-05-12T09:07:21;101831.40;;;18.05;64.76
59873;BME280;50750;51.636;4.948;2023-05-12T09:09:56;101831.59;;;18.04;64.77
59873;BME280;50750;51.636;4.948;2023-05-12T09:12:24;101833.73;;;18.04;64.61
59873;BME280;50750;51.636;4.948;2023-05-12T09:15:03;101833.36;;;18.04;64.79
59873;BME280;50750;51.636;4.948;2023-05-12T09:17:30;101833.33;;;18.05;64.75
59873;BME280;50750;51.636;4.948;2023-05-12T09:19:57;101829.95;;;18.06;64.63
59873;BME280;50750;51.636;4.948;2023-05-12T09:22:28;101828.12;;;18.07;64.70
59873;BME280;50750;51.636;4.948;2023-05-12T09:24:54;101825.95;;;18.07;64.81
59873;BME280;50750;51.636;4.948;2023-05-12T09:27:25;101829.48;;;18.08;64.77
59873;BME280;50750;51.636;4.948;2023-05-12T09:29:53;101829.83;;;18.08;64.66
59873;BME280;50750;51.636;4.948;2023-05-12T09:32:30;101828.40;;;18.08;64.75
59873;BME280;50750;51.636;4.948;2023-05-12T09:35:04;101833.71;;;18.08;64.72
59873;BME280;50750;51.636;4.948;2023-05-12T09:37:33;101836.37;;;18.09;64.79
59873;BME280;50750;51.636;4.948;2023-05-12T09:40:04;101837.80;;;18.08;64.71
59873;BME280;50750;51.636;4.948;2023-05-12T09:42:32;101839.05;;;18.08;64.75
59873;BME280;50750;51.636;4.948;2023-05-12T09:45:01;101834.97;;;18.08;64.71
59873;BME280;50750;51.636;4.948;2023-05-12T09:47:36;101841.69;;;18.08;64.79
59873;BME280;50750;51.636;4.948;2023-05-12T09:50:05;101840.58;;;18.09;64.72
59873;BME280;50750;51.636;4.948;2023-05-12T09:52:37;101840.35;;;18.10;64.78
59873;BME280;50750;51.636;4.948;2023-05-12T09:55:07;101834.30;;;18.11;64.75
59873;BME280;50750;51.636;4.948;2023-05-12T09:57:38;101834.77;;;18.13;64.77
59873;BME280;50750;51.636;4.948;2023-05-12T10:00:11;101832.77;;;18.14;64.73
59873;BME280;50750;51.636;4.948;2023-05-12T10:02:47;101835.20;;;18.15;64.67
59873;BME280;50750;51.636;4.948;2023-05-12T10:05:18;101829.83;;;18.16;64.58
59873;BME280;50750;51.636;4.948;2023-05-12T10:07:50;101830.42;;;18.18;64.72
59873;BME280;50750;51.636;4.948;2023-05-12T10:10:22;101833.23;;;18.19;64.77
59873;BME280;50750;51.636;4.948;2023-05-12T10:12:50;101835.48;;;18.20;64.57
59873;BME280;50750;51.636;4.948;2023-05-12T10:15:18;101833.34;;;18.20;64.66
59873;BME280;50750;51.636;4.948;2023-05-12T10:17:47;101834.36;;;18.21;64.65
59873;BME280;50750;51.636;4.948;2023-05-12T10:20:14;101834.52;;;18.22;64.73
59873;BME280;50750;51.636;4.948;2023-05-12T10:22:43;101836.98;;;18.22;64.56
59873;BME280;50750;51.636;4.948;2023-05-12T10:25:10;101840.30;;;18.23;64.47
59873;BME280;50750;51.636;4.948;2023-05-12T10:27:37;101842.22;;;18.24;64.56
59873;BME280;50750;51.636;4.948;2023-05-12T10:30:05;101841.66;;;18.24;64.65
59873;BME280;50750;51.636;4.948;2023-05-12T10:32:32;101846.98;;;18.25;64.49
59873;BME280;50750;51.636;4.948;2023-05-12T10:35:11;101853.02;;;18.24;64.47
59873;BME280;50750;51.636;4.948;2023-05-12T10:37:38;101845.40;;;18.24;64.36
59873;BME280;50750;51.636;4.948;2023-05-12T10:40:05;101846.47;;;18.24;64.28
59873;BME280;50750;51.636;4.948;2023-05-12T10:42:42;101850.52;;;18.24;64.16
59873;BME280;50750;51.636;4.948;2023-05-12T10:45:17;101850.71;;;18.24;64.22
59873;BME280;50750;51.636;4.948;2023-05-12T10:47:45;101847.73;;;18.23;64.25
59873;BME280;50750;51.636;4.948;2023-05-12T10:50:13;101848.09;;;18.23;64.22
59873;BME280;50750;51.636;4.948;2023-05-12T10:52:40;101844.95;;;18.22;64.34
59873;BME280;50750;51.636;4.948;2023-05-12T10:55:29;101845.67;;;18.22;64.26
59873;BME280;50750;51.636;4.948;2023-05-12T10:58:09;101844.94;;;18.22;64.21
59873;BME280;50750;51.636;4.948;2023-05-12T11:00:44;101846.85;;;18.23;64.17
59873;BME280;50750;51.636;4.948;2023-05-12T11:03:13;101848.41;;;18.24;64.25
59873;BME280;50750;51.636;4.948;2023-05-12T11:05:40;101847.15;;;18.25;64.17
59873;BME280;50750;51.636;4.948;2023-05-12T11:08:07;101844.48;;;18.25;64.29
59873;BME280;50750;51.636;4.948;2023-05-12T11:10:33;101850.64;;;18.25;64.22
59873;BME280;50750;51.636;4.948;2023-05-12T11:13:01;101854.17;;;18.26;64.15
59873;BME280;50750;51.636;4.948;2023-05-12T11:15:29;101857.70;;;18.26;64.35
59873;BME280;50750;51.636;4.948;2023-05-12T11:17:56;101860.72;;;18.26;64.29
59873;BME280;50750;51.636;4.948;2023-05-12T11:20:24;101864.45;;;18.26;64.20
59873;BME280;50750;51.636;4.948;2023-05-12T11:22:51;101863.20;;;18.26;64.31
59873;BME280;50750;51.636;4.948;2023-05-12T11:25:19;101864.99;;;18.26;64.28
59873;BME280;50750;51.636;4.948;2023-05-12T11:27:48;101867.29;;;18.26;64.30
59873;BME280;50750;51.636;4.948;2023-05-12T11:30:16;101875.65;;;18.25;64.24
59873;BME280;50750;51.636;4.948;2023-05-12T11:32:42;101872.45;;;18.25;64.45
59873;BME280;50750;51.636;4.948;2023-05-12T11:35:14;101876.85;;;18.27;64.26
59873;BME280;50750;51.636;4.948;2023-05-12T11:37:43;101879.27;;;18.27;64.46
59873;BME280;50750;51.636;4.948;2023-05-12T11:40:19;101882.45;;;18.28;64.38
59873;BME280;50750;51.636;4.948;2023-05-12T11:42:47;101880.48;;;18.28;64.17
59873;BME280;50750;51.636;4.948;2023-05-12T11:45:20;101877.61;;;18.29;64.14
59873;BME280;50750;51.636;4.948;2023-05-12T11:47:47;101879.17;;;18.29;64.18
59873;BME280;50750;51.636;4.948;2023-05-12T11:50:22;101877.40;;;18.29;64.21
59873;BME280;50750;51.636;4.948;2023-05-12T11:52:50;101879.52;;;18.30;64.29
59873;BME280;50750;51.636;4.948;2023-05-12T11:55:22;101883.59;;;18.30;64.39
59873;BME280;50750;51.636;4.948;2023-05-12T11:57:57;101885.54;;;18.30;64.21
59873;BME280;50750;51.636;4.948;2023-05-12T12:00:33;101890.70;;;18.30;64.38
59873;BME280;50750;51.636;4.948;2023-05-12T12:03:11;101894.61;;;18.29;64.36
59873;BME280;50750;51.636;4.948;2023-05-12T12:05:40;101893.72;;;18.29;64.30
59873;BME280;50750;51.636;4.948;2023-05-12T12:08:12;101899.56;;;18.30;64.41
59873;BME280;50750;51.636;4.948;2023-05-12T12:10:43;101903.95;;;18.30;64.33
59873;BME280;50750;51.636;4.948;2023-05-12T12:13:11;101906.73;;;18.32;64.38
59873;BME280;50750;51.636;4.948;2023-05-12T12:15:38;101911.69;;;18.32;64.30
59873;BME280;50750;51.636;4.948;2023-05-12T12:18:04;101913.77;;;18.33;64.33
59873;BME280;50750;51.636;4.948;2023-05-12T12:20:31;101919.05;;;18.34;64.35
59873;BME280;50750;51.636;4.948;2023-05-12T12:23:00;101921.52;;;18.34;64.23
59873;BME280;50750;51.636;4.948;2023-05-12T12:25:26;101923.27;;;18.35;64.21
59873;BME280;50750;51.636;4.948;2023-05-12T12:27:53;101920.07;;;18.35;64.25
59873;BME280;50750;51.636;4.948;2023-05-12T12:30:20;101923.26;;;18.35;64.34
59873;BME280;50750;51.636;4.948;2023-05-12T12:32:47;101923.80;;;18.35;64.38
59873;BME280;50750;51.636;4.948;2023-05-12T12:35:14;101927.88;;;18.35;64.36
59873;BME280;50750;51.636;4.948;2023-05-12T12:37:40;101924.69;;;18.35;64.33
59873;BME280;50750;51.636;4.948;2023-05-12T12:40:08;101929.65;;;18.35;64.46
59873;BME280;50750;51.636;4.948;2023-05-12T12:42:37;101924.65;;;18.36;64.39
59873;BME280;50750;51.636;4.948;2023-05-12T12:45:05;101935.09;;;18.36;64.35
59873;BME280;50750;51.636;4.948;2023-05-12T12:47:31;101936.67;;;18.37;64.30
59873;BME280;50750;51.636;4.948;2023-05-12T12:49:58;101938.95;;;18.37;64.34
59873;BME280;50750;51.636;4.948;2023-05-12T12:52:25;101938.04;;;18.38;64.36
59873;BME280;50750;51.636;4.948;2023-05-12T12:54:52;101940.69;;;18.38;64.47
59873;BME280;50750;51.636;4.948;2023-05-12T12:57:18;101942.96;;;18.39;64.42
59873;BME280;50750;51.636;4.948;2023-05-12T12:59:47;101950.75;;;18.39;64.33